Decoded Metar for PAMD (MIDDLETON ISLAND in AK, USA) (IATA:N/A) | Meteo·Mobile Aviation Weather
aviador You're here:

PAMD Decoded Metar

MIDDLETON ISLAND in AK, USA
Report Time2019-02-17 08:02:00
UTC Time2019-02-17 08:26:49
Flight Rules ifr IFR
Wind110° at 22 Gusting to 27 kt
W.Decomp.*RWY 13: 17.3 kt HW 13.5 kt LCW
RWY 02: 6.8 kt HW 20.9 kt RCW
W.Rank110° ranks 3
Current wind is above 110° avg. (15.4)
Visibility9999 m
Phenomena:Light Rain
Clouds:Broken 008 Hf
Overcast 014 Hf
Expected CloudBase > 400 ft AGL from Temp-Dew spread
Ceiling800 ft
Temp03°C (ISA -12)
Dew Point02°C (93% RH)
AAT-6.6°C
QNH1024 hPa
Density Alt-1,677 ft
Elevation46 ft
Report Wrong Elevation
Raw Report
PAMD 170802Z AUTO 11022G27KT 7SM -RA BKN008 OVC014 03/02 A3023 RMK
AO2 PK WND 12028/0753 P0001=

Extra information for PAMD:More info

Metar Taf Metar & Taf Last 4 Metars F.Rules Stats Wind Profile Meteogram Temp Stats Airport Information Weather charts Add Link Nearby VenuesMetar ALERT Operation Metar Decoded Social comments

AIRNAV info for PAMD